Time;durP1;ratioP1;P1;durP2;ratioP2;P2;SDS_P1;SDS_P2;PMS_P1;PMS_P2;Temp;Humidity;BMP_temperature;BMP_pressure;BME280_temperature;BME280_humidity;BME280_pressure;Samples;Min_cycle;Max_cycle;Signal;HPM_P1;HPM_P2
2022/02/03 00:02:21;;;;;;;23.98;4.80;;;;;;;1.61;100.00;101108.50;7388308;19;20223;-50
2022/02/03 00:04:57;;;;;;;27.47;4.27;;;;;;;1.61;100.00;101115.22;7399552;19;20139;-55
2022/02/03 00:07:35;;;;;;;14.73;3.37;;;;;;;1.64;100.00;101110.38;7390955;19;20959;-53
2022/02/03 00:10:27;;;;;;;19.10;3.92;;;;;;;1.68;100.00;101111.53;7396148;19;20380;-53
2022/02/03 00:24:12;;;;;;;16.38;3.30;;;;;;;1.91;100.00;101118.53;7394452;19;20392;-48
2022/02/03 00:26:47;;;;;;;23.00;3.70;;;;;;;1.89;100.00;101114.97;7391004;19;20193;-47
2022/02/03 00:29:34;;;;;;;19.47;4.20;;;;;;;1.97;100.00;101108.88;7394476;19;20396;-51
2022/02/03 00:32:14;;;;;;;25.48;4.20;;;;;;;1.99;100.00;101097.16;7391139;19;20460;-53
2022/02/03 00:34:53;;;;;;;13.23;3.73;;;;;;;1.93;100.00;101099.19;7397041;19;20140;-46
2022/02/03 00:37:43;;;;;;;33.60;4.60;;;;;;;1.94;100.00;101093.31;7392967;19;20427;-50
2022/02/03 00:48:32;;;;;;;13.67;3.77;;;;;;;2.05;100.00;101091.66;7396114;19;20183;-50
2022/02/03 00:51:02;;;;;;;17.77;2.50;;;;;;;2.10;100.00;101086.97;7392468;19;20419;-50
2022/02/03 00:53:31;;;;;;;13.33;4.20;;;;;;;2.15;100.00;101080.56;7397150;19;20394;-53
2022/02/03 00:56:05;;;;;;;16.30;3.30;;;;;;;2.17;100.00;101086.69;7392378;19;20897;-50
2022/02/03 00:58:36;;;;;;;23.63;5.10;;;;;;;2.19;100.00;101080.06;7397505;19;20700;-50
2022/02/03 01:01:06;;;;;;;11.83;3.50;;;;;;;2.24;100.00;101072.78;7390493;19;20411;-54
2022/02/03 01:03:39;;;;;;;16.20;4.67;;;;;;;2.24;100.00;101078.78;7396784;19;20404;-55
2022/02/03 01:06:09;;;;;;;17.07;4.30;;;;;;;2.29;100.00;101068.94;7391733;19;20395;-53
2022/02/03 01:08:40;;;;;;;22.97;4.80;;;;;;;2.27;100.00;101071.38;7396612;19;20409;-50
2022/02/03 01:11:15;;;;;;;17.27;5.20;;;;;;;2.25;100.00;101070.34;7391697;19;20415;-52
2022/02/03 01:13:50;;;;;;;16.00;4.17;;;;;;;2.28;100.00;101077.34;7397113;19;20738;-57
2022/02/03 01:16:33;;;;;;;16.93;4.60;;;;;;;2.31;100.00;101080.16;7391696;19;20410;-52
2022/02/03 01:43:55;;;;;;;21.80;4.17;;;;;;;2.35;100.00;101063.47;7393031;19;20409;-53
2022/02/03 01:46:47;;;;;;;14.57;3.30;;;;;;;2.34;100.00;101064.22;7391903;19;20445;-55
2022/02/03 01:49:29;;;;;;;22.03;4.10;;;;;;;2.34;100.00;101057.47;7403036;19;20398;-53
2022/02/03 01:52:00;;;;;;;14.10;3.63;;;;;;;2.29;100.00;101057.13;7396626;19;20455;-55
2022/02/03 01:54:32;;;;;;;20.93;4.47;;;;;;;2.32;100.00;101051.38;7401967;19;20393;-50
2022/02/03 01:57:10;;;;;;;19.63;3.80;;;;;;;2.35;100.00;101045.66;7399293;19;20495;-51
2022/02/03 01:59:42;;;;;;;22.23;3.97;;;;;;;2.32;100.00;101036.09;7403288;19;20406;-49
2022/02/03 02:02:11;;;;;;;21.93;3.50;;;;;;;2.29;100.00;101031.66;7394436;19;20441;-50
2022/02/03 02:04:59;;;;;;;18.17;3.33;;;;;;;2.34;100.00;101033.66;7402656;19;20391;-52
2022/02/03 02:07:39;;;;;;;24.00;4.47;;;;;;;2.32;100.00;101033.56;7398274;19;20446;-47
2022/02/03 02:10:35;;;;;;;14.00;3.67;;;;;;;2.34;100.00;101033.66;7400248;19;20740;-55
2022/02/03 02:13:37;;;;;;;13.20;3.60;;;;;;;2.38;100.00;101020.41;7398271;19;20431;-53
2022/02/03 02:16:28;;;;;;;16.50;3.93;;;;;;;2.35;100.00;101018.50;7397995;19;20390;-51
2022/02/03 02:19:14;;;;;;;12.30;2.60;;;;;;;2.38;100.00;101010.22;7402133;19;20398;-53
2022/02/03 02:38:30;;;;;;;15.40;3.40;;;;;;;2.48;100.00;100987.25;7397915;19;21002;-52
2022/02/03 02:43:54;;;;;;;17.10;3.77;;;;;;;2.56;100.00;100985.28;7397388;19;20418;-51
2022/02/03 02:46:25;;;;;;;29.07;3.90;;;;;;;2.52;100.00;100978.19;7398086;19;20443;-52
2022/02/03 02:49:18;;;;;;;12.70;3.20;;;;;;;2.56;100.00;100968.34;7401208;19;20947;-50
2022/02/03 02:51:57;;;;;;;15.80;4.00;;;;;;;2.61;100.00;100967.84;7395468;19;20968;-53
2022/02/03 02:55:00;;;;;;;20.47;4.93;;;;;;;2.63;100.00;100971.38;7400092;19;20386;-52
2022/02/03 03:03:31;;;;;;;10.77;2.93;;;;;;;2.64;100.00;100957.88;7389904;19;20432;-45
2022/02/03 03:30:42;;;;;;;29.40;5.40;;;;;;;2.96;100.00;100926.28;7393820;19;20403;-52
2022/02/03 03:33:23;;;;;;;21.23;4.20;;;;;;;2.99;100.00;100921.44;7392667;19;20765;-53
2022/02/03 03:35:56;;;;;;;15.13;4.30;;;;;;;3.03;100.00;100923.41;7396723;19;20736;-58
2022/02/03 03:38:28;;;;;;;14.10;4.20;;;;;;;3.07;100.00;100916.88;7397988;19;20424;-48
2022/02/03 03:40:59;;;;;;;21.33;4.30;;;;;;;3.15;100.00;100914.91;7390973;19;20784;-54
2022/02/03 03:43:31;;;;;;;25.83;6.40;;;;;;;3.13;100.00;100913.94;7393965;19;20391;-51
2022/02/03 03:46:07;;;;;;;16.47;4.10;;;;;;;3.19;100.00;100911.84;7393028;19;20932;-56
2022/02/03 03:48:42;;;;;;;18.43;4.13;;;;;;;3.23;100.00;100911.31;7395072;19;20388;-49
2022/02/03 03:51:12;;;;;;;15.47;4.30;;;;;;;3.14;100.00;100910.59;7390973;19;20418;-55
2022/02/03 03:53:49;;;;;;;23.70;5.30;;;;;;;3.31;100.00;100907.63;7395487;19;20384;-52
2022/02/03 03:56:30;;;;;;;25.80;5.97;;;;;;;3.38;100.00;100902.22;7395049;19;20758;-53
2022/02/03 03:59:26;;;;;;;17.40;3.43;;;;;;;3.29;100.00;100893.91;7397895;19;20479;-50
2022/02/03 04:30:59;;;;;;;20.93;5.90;;;;;;;3.33;100.00;100885.69;7392657;19;20414;-50
2022/02/03 04:33:55;;;;;;;15.13;4.57;;;;;;;3.33;100.00;100883.13;7393416;19;20761;-55
2022/02/03 04:42:48;;;;;;;29.47;6.90;;;;;;;3.41;100.00;100859.84;7387613;19;20949;-49
2022/02/03 04:51:36;;;;;;;23.50;6.30;;;;;;;3.34;100.00;100856.84;7385560;19;20787;-53
2022/02/03 04:57:48;;;;;;;21.20;6.37;;;;;;;3.36;100.00;100837.44;7390397;19;20413;-52
2022/02/03 05:03:48;;;;;;;18.27;6.43;;;;;;;3.40;100.00;100827.44;7388805;19;20438;-50
2022/02/03 05:06:32;;;;;;;23.60;7.33;;;;;;;3.37;100.00;100816.25;7389919;19;20407;-54
2022/02/03 05:09:20;;;;;;;22.37;8.03;;;;;;;3.37;100.00;100818.81;7392994;19;20388;-49
2022/02/03 05:12:25;;;;;;;24.03;7.97;;;;;;;3.34;100.00;100800.72;7388047;19;20759;-52
2022/02/03 05:18:26;;;;;;;19.43;7.80;;;;;;;3.33;100.00;100790.44;7389839;19;20415;-55
2022/02/03 05:21:30;;;;;;;20.97;8.00;;;;;;;3.31;100.00;100784.31;7388287;19;20419;-50
2022/02/03 05:45:01;;;;;;;24.13;10.90;;;;;;;3.46;100.00;100746.25;7400024;19;20406;-49
2022/02/03 05:48:02;;;;;;;24.20;10.87;;;;;;;3.40;100.00;100738.16;7396721;19;20414;-48
2022/02/03 05:50:50;;;;;;;21.30;9.80;;;;;;;3.44;100.00;100728.28;7397719;19;20414;-51
2022/02/03 06:02:02;;;;;;;23.60;10.70;;;;;;;3.56;100.00;100710.41;7389621;19;20402;-50
2022/02/03 06:04:49;;;;;;;22.87;11.13;;;;;;;3.59;100.00;100700.41;7396711;19;20910;-51
2022/02/03 06:07:40;;;;;;;21.90;9.80;;;;;;;3.53;100.00;100697.44;7397347;19;20510;-52
2022/02/03 06:12:59;;;;;;;24.70;8.87;;;;;;;3.53;100.00;100705.09;7395076;19;20433;-51
2022/02/03 06:15:36;;;;;;;24.10;11.03;;;;;;;3.61;100.00;100696.31;7398321;19;20395;-48
2022/02/03 06:24:02;;;;;;;26.50;11.20;;;;;;;3.62;100.00;100698.09;7397018;19;20430;-51
2022/02/03 06:29:17;;;;;;;18.87;10.40;;;;;;;3.69;100.00;100694.25;7398048;19;20941;-53
2022/02/03 06:31:49;;;;;;;19.50;10.10;;;;;;;3.68;100.00;100687.41;7392875;19;20407;-53
2022/02/03 06:34:21;;;;;;;22.63;11.60;;;;;;;3.73;100.00;100690.25;7397727;19;20454;-49
2022/02/03 06:36:56;;;;;;;18.67;9.33;;;;;;;3.73;100.00;100680.94;7394059;19;20419;-51
2022/02/03 06:39:27;;;;;;;17.93;8.83;;;;;;;3.77;100.00;100688.03;7398150;19;20394;-50
2022/02/03 06:41:59;;;;;;;23.30;11.50;;;;;;;3.78;100.00;100673.59;7392929;19;20745;-48
2022/02/03 06:44:34;;;;;;;20.17;11.63;;;;;;;3.85;100.00;100680.88;7397979;19;20417;-57
2022/02/03 06:47:09;;;;;;;18.90;10.50;;;;;;;3.85;100.00;100680.88;7393983;19;20757;-55
2022/02/03 06:49:48;;;;;;;24.80;10.93;;;;;;;3.83;100.00;100676.44;7397509;19;20383;-54
2022/02/03 06:52:27;;;;;;;20.63;9.57;;;;;;;3.79;100.00;100675.34;7393363;19;20406;-48
2022/02/03 06:55:08;;;;;;;23.93;12.23;;;;;;;3.89;100.00;100675.22;7396848;19;20388;-54
2022/02/03 06:57:38;;;;;;;25.03;11.27;;;;;;;4.00;100.00;100669.94;7394669;19;20429;-47
2022/02/03 07:00:17;;;;;;;23.93;11.70;;;;;;;3.94;100.00;100667.84;7396149;19;20425;-51
2022/02/03 07:02:50;;;;;;;29.90;12.30;;;;;;;3.98;100.00;100663.84;7394660;19;20435;-49
2022/02/03 07:05:21;;;;;;;31.77;12.37;;;;;;;4.04;100.00;100656.59;7398874;19;20924;-48
2022/02/03 07:07:55;;;;;;;26.40;12.70;;;;;;;4.09;100.00;100660.34;7393680;19;20419;-46
2022/02/03 07:10:26;;;;;;;33.20;13.27;;;;;;;4.07;100.00;100651.69;7395452;19;20743;-54
2022/02/03 07:12:57;;;;;;;28.80;13.00;;;;;;;4.10;100.00;100654.44;7393265;19;20415;-53
2022/02/03 07:15:27;;;;;;;36.43;12.97;;;;;;;4.10;100.00;100651.88;7396559;19;20394;-54
2022/02/03 07:17:59;;;;;;;22.70;10.70;;;;;;;4.12;100.00;100647.78;7393329;19;20415;-48
2022/02/03 07:20:29;;;;;;;18.57;8.50;;;;;;;4.13;100.00;100641.88;7395422;19;20423;-48
2022/02/03 07:23:01;;;;;;;26.30;11.57;;;;;;;4.19;100.00;100643.94;7393660;19;20423;-48
2022/02/03 07:25:32;;;;;;;27.53;12.40;;;;;;;4.21;100.00;100644.97;7394718;19;20411;-48
2022/02/03 07:28:02;;;;;;;24.27;11.30;;;;;;;4.23;100.00;100645.94;7393196;19;20407;-51
2022/02/03 07:30:32;;;;;;;26.87;11.37;;;;;;;4.24;100.00;100649.34;7395294;19;20416;-51
2022/02/03 07:33:04;;;;;;;25.70;12.27;;;;;;;4.31;100.00;100646.44;7392742;19;20415;-45
2022/02/03 07:35:34;;;;;;;21.37;9.30;;;;;;;4.28;100.00;100647.13;7396698;19;20387;-47
2022/02/03 07:38:08;;;;;;;31.10;14.63;;;;;;;4.40;100.00;100647.03;7395356;19;20510;-53
2022/02/03 07:40:38;;;;;;;23.37;12.40;;;;;;;4.49;100.00;100635.63;7394700;19;20418;-47
2022/02/03 07:43:10;;;;;;;44.23;21.63;;;;;;;4.76;100.00;100638.19;7392168;19;20448;-51
2022/02/03 07:45:40;;;;;;;29.50;14.13;;;;;;;4.63;100.00;100639.97;7392047;19;20456;-50
2022/02/03 07:48:09;;;;;;;24.73;11.93;;;;;;;4.57;100.00;100637.03;7396613;19;20450;-55
2022/02/03 07:50:39;;;;;;;23.50;10.23;;;;;;;4.56;100.00;100635.25;7396434;19;20438;-49
2022/02/03 07:53:11;;;;;;;21.03;10.93;;;;;;;4.53;100.00;100635.94;7391561;19;20425;-50
2022/02/03 07:55:40;;;;;;;25.13;10.10;;;;;;;4.57;100.00;100634.47;7395348;19;20416;-50
2022/02/03 07:58:10;;;;;;;24.97;10.80;;;;;;;4.61;100.00;100626.19;7394048;19;20441;-53
2022/02/03 08:00:40;;;;;;;17.90;8.80;;;;;;;4.61;100.00;100638.09;7393780;19;20419;-51
2022/02/03 08:03:14;;;;;;;29.07;12.83;;;;;;;4.72;100.00;100634.56;7391255;19;20414;-52
2022/02/03 08:05:48;;;;;;;24.63;10.60;;;;;;;4.71;100.00;100641.34;7393754;19;20392;-52
2022/02/03 08:08:25;;;;;;;26.17;11.90;;;;;;;4.71;100.00;100631.09;7393998;19;20475;-54
2022/02/03 08:10:58;;;;;;;35.73;13.83;;;;;;;4.77;100.00;100634.84;7390377;19;20423;-53
2022/02/03 08:13:32;;;;;;;21.33;9.17;;;;;;;4.83;100.00;100635.22;7394910;19;20462;-52
2022/02/03 08:16:04;;;;;;;23.83;10.13;;;;;;;4.82;100.00;100630.91;7391917;19;20388;-49
2022/02/03 08:18:43;;;;;;;31.73;13.97;;;;;;;4.91;100.00;100623.81;7394855;19;20392;-51
2022/02/03 08:21:14;;;;;;;16.93;7.77;;;;;;;4.93;100.00;100619.66;7387805;19;21365;-56
2022/02/03 08:26:49;;;;;;;34.70;12.90;;;;;;;4.98;100.00;100608.06;7387963;19;20406;-51
2022/02/03 08:29:59;;;;;;;32.20;13.93;;;;;;;4.98;100.00;100610.59;7393740;19;20403;-51
2022/02/03 08:32:26;;;;;;;26.03;9.80;;;;;;;5.02;100.00;100615.94;7391151;19;20418;-52
2022/02/03 08:35:20;;;;;;;31.80;14.20;;;;;;;5.13;100.00;100607.25;7396043;19;20927;-50
2022/02/03 08:38:00;;;;;;;42.40;17.63;;;;;;;5.08;100.00;100606.09;7388598;19;21247;-54
2022/02/03 08:40:43;;;;;;;44.17;16.80;;;;;;;5.14;100.00;100603.91;7392774;19;20388;-50
2022/02/03 08:43:13;;;;;;;57.80;16.17;;;;;;;5.17;100.00;100604.06;7390743;19;20937;-54
2022/02/03 08:45:43;;;;;;;29.40;10.97;;;;;;;5.12;100.00;100600.34;7393059;19;20394;-49
2022/02/03 08:48:14;;;;;;;35.73;13.73;;;;;;;5.16;100.00;100594.63;7390616;19;20411;-46
2022/02/03 08:50:44;;;;;;;27.47;9.37;;;;;;;5.27;100.00;100592.72;7392546;19;20407;-50
2022/02/03 08:53:17;;;;;;;33.63;12.70;;;;;;;5.21;100.00;100585.56;7390099;19;20827;-48
2022/02/03 08:55:58;;;;;;;19.13;8.27;;;;;;;5.27;100.00;100579.94;7392992;19;20416;-53
2022/02/03 08:59:02;;;;;;;30.20;10.47;;;;;;;5.28;100.00;100581.69;7392540;19;20418;-51
2022/02/03 09:40:35;;;;;;;45.27;14.50;;;;;;;5.66;100.00;100544.69;7392736;19;20425;-46
2022/02/03 09:59:46;;;;;;;40.20;13.33;;;;;;;5.94;100.00;100530.94;7390844;19;20395;-50
2022/02/03 10:02:26;;;;;;;34.97;12.53;;;;;;;5.98;100.00;100539.69;7387729;19;20423;-51
2022/02/03 10:04:58;;;;;;;28.73;12.60;;;;;;;6.02;100.00;100533.97;7391913;19;20375;-47
2022/02/03 10:07:34;;;;;;;50.60;17.83;;;;;;;6.09;100.00;100530.06;7389801;19;20747;-47
2022/02/03 10:10:08;;;;;;;41.17;19.40;;;;;;;6.35;100.00;100522.94;7397995;19;20391;-51
2022/02/03 10:12:39;;;;;;;36.77;14.30;;;;;;;6.22;100.00;100522.25;7395982;19;20749;-48
2022/02/03 10:15:11;;;;;;;38.90;14.77;;;;;;;6.20;100.00;100522.97;7398597;19;20383;-48
2022/02/03 10:17:46;;;;;;;35.00;13.33;;;;;;;6.22;100.00;100521.41;7395950;19;20449;-48
2022/02/03 10:20:18;;;;;;;34.77;12.07;;;;;;;6.25;100.00;100518.13;7397591;19;20391;-47
2022/02/03 10:22:50;;;;;;;38.07;14.13;;;;;;;6.30;100.00;100522.69;7395942;19;20415;-49
2022/02/03 10:25:25;;;;;;;55.10;16.93;;;;;;;6.32;100.00;100513.41;7397841;19;20387;-48
2022/02/03 10:28:03;;;;;;;56.93;21.27;;;;;;;6.35;100.00;100508.47;7395078;19;20493;-47
2022/02/03 10:30:39;;;;;;;68.17;23.63;;;;;;;6.49;100.00;100508.31;7397147;19;20968;-51
2022/02/03 10:33:12;;;;;;;41.60;15.60;;;;;;;6.42;100.00;100508.81;7394994;19;20418;-55
2022/02/03 10:35:47;;;;;;;62.03;22.63;;;;;;;6.56;100.00;100496.75;7397975;19;20388;-49
2022/02/03 10:41:37;;;;;;;45.53;18.33;;;;;;;6.48;100.00;100493.75;7393718;19;20481;-53
2022/02/03 10:47:11;;;;;;;49.10;18.50;;;;;;;6.55;100.00;100490.72;7393970;19;20442;-45
2022/02/03 10:58:43;;;;;;;65.93;24.50;;;;;;;6.64;100.00;100492.00;7394141;19;20434;-47
2022/02/03 11:04:29;;;;;;;57.30;20.43;;;;;;;6.64;100.00;100490.34;7396636;19;20387;-45
2022/02/03 11:07:06;;;;;;;52.80;20.57;;;;;;;6.62;100.00;100492.81;7387272;19;20415;-53
2022/02/03 11:09:52;;;;;;;60.40;20.77;;;;;;;6.65;100.00;100483.53;7396883;19;20394;-48
2022/02/03 11:12:43;;;;;;;69.30;24.57;;;;;;;6.67;100.00;100492.19;7395397;19;20478;-52
2022/02/03 11:15:13;;;;;;;75.10;26.67;;;;;;;6.68;100.00;100486.25;7396633;19;20394;-53
2022/02/03 11:17:47;;;;;;;72.30;28.23;;;;;;;6.69;100.00;100477.75;7392969;19;20407;-52
2022/02/03 11:20:18;;;;;;;63.63;20.90;;;;;;;6.68;100.00;100481.13;7395335;19;20419;-48
2022/02/03 11:22:55;;;;;;;68.57;23.13;;;;;;;6.68;100.00;100481.13;7392013;19;20422;-45
2022/02/03 11:25:38;;;;;;;57.90;19.77;;;;;;;6.66;100.00;100469.91;7394766;19;20737;-48
2022/02/03 11:37:01;;;;;;;34.47;14.43;;;;;;;6.65;100.00;100465.59;7392809;19;20944;-53
2022/02/03 11:40:03;;;;;;;39.17;13.17;;;;;;;6.58;100.00;100467.81;7395883;19;20387;-50
2022/02/03 11:43:15;;;;;;;38.17;11.70;;;;;;;6.56;100.00;100473.66;7392273;19;21012;-51
2022/02/03 11:48:57;;;;;;;49.20;17.10;;;;;;;6.57;100.00;100462.59;7394666;19;20414;-50
2022/02/03 12:20:19;;;;;;;33.07;13.30;;;;;;;6.32;100.00;100415.16;7393688;19;20387;-52
2022/02/03 12:23:04;;;;;;;34.37;13.93;;;;;;;6.30;100.00;100417.63;7391713;19;20941;-54
2022/02/03 12:25:47;;;;;;;40.90;16.80;;;;;;;6.30;100.00;100412.50;7395772;19;20394;-51
2022/02/03 12:28:27;;;;;;;35.53;15.67;;;;;;;6.28;100.00;100406.44;7389437;19;20442;-56
2022/02/03 12:39:12;;;;;;;24.53;10.17;;;;;;;6.23;100.00;100387.38;7394276;19;20383;-51
2022/02/03 12:41:43;;;;;;;37.30;15.43;;;;;;;6.24;100.00;100375.44;7389784;19;20948;-51
2022/02/03 12:44:21;;;;;;;31.60;13.10;;;;;;;6.18;100.00;100383.66;7393739;19;20390;-48
2022/02/03 12:46:51;;;;;;;44.77;17.20;;;;;;;6.20;100.00;100369.25;7390598;19;20762;-52
2022/02/03 12:49:23;;;;;;;42.13;16.93;;;;;;;6.18;100.00;100360.63;7393613;19;20380;-53
2022/02/03 12:51:52;;;;;;;36.90;16.40;;;;;;;6.17;100.00;100349.50;7389388;19;20478;-52
2022/02/03 12:54:22;;;;;;;45.80;20.13;;;;;;;6.16;100.00;100344.28;7393659;19;20386;-57
2022/02/03 12:56:51;;;;;;;50.53;20.10;;;;;;;6.13;100.00;100346.69;7391047;19;20415;-52
2022/02/03 12:59:28;;;;;;;39.80;16.47;;;;;;;6.00;100.00;100345.13;7393620;19;20392;-53
2022/02/03 13:01:58;;;;;;;31.27;11.70;;;;;;;5.94;100.00;100354.22;7388700;19;20403;-52
2022/02/03 13:04:29;;;;;;;39.90;13.40;;;;;;;5.94;100.00;100359.34;7393298;19;20419;-52
2022/02/03 13:07:08;;;;;;;48.50;19.33;;;;;;;5.95;100.00;100367.94;7392365;19;20460;-52
2022/02/03 13:09:50;;;;;;;32.37;11.90;;;;;;;5.89;100.00;100363.34;7393591;19;20391;-49
2022/02/03 13:12:24;;;;;;;41.10;16.17;;;;;;;5.93;100.00;100369.50;7390263;19;20413;-52
2022/02/03 13:14:59;;;;;;;43.50;17.50;;;;;;;5.98;100.00;100374.88;7393099;19;20384;-50
2022/02/03 13:17:33;;;;;;;34.27;14.43;;;;;;;5.89;100.00;100367.59;7390273;19;20957;-51
2022/02/03 13:20:13;;;;;;;35.33;13.00;;;;;;;5.90;100.00;100365.09;7392059;19;20375;-53
2022/02/03 13:22:50;;;;;;;55.90;20.10;;;;;;;5.93;100.00;100369.50;7389998;19;20417;-53
2022/02/03 13:25:26;;;;;;;41.83;15.70;;;;;;;5.89;100.00;100372.72;7392801;19;20387;-51
2022/02/03 13:28:03;;;;;;;27.40;11.00;;;;;;;5.89;100.00;100380.41;7363495;19;20427;-53
2022/02/03 13:30:45;;;;;;;28.07;11.37;;;;;;;5.91;100.00;100376.22;7391665;19;20415;-50
2022/02/03 13:33:17;;;;;;;41.43;15.83;;;;;;;5.89;100.00;100382.97;7389624;19;20414;-51
2022/02/03 13:35:57;;;;;;;40.80;14.17;;;;;;;5.87;100.00;100389.66;7392383;19;20387;-53
2022/02/03 13:38:37;;;;;;;47.07;17.97;;;;;;;5.90;100.00;100379.59;7391875;19;20494;-54
2022/02/03 13:41:11;;;;;;;33.60;14.90;;;;;;;5.87;100.00;100384.53;7388635;19;20423;-56
2022/02/03 13:43:42;;;;;;;27.60;11.40;;;;;;;5.83;100.00;100386.03;7397318;19;20385;-53
2022/02/03 13:46:27;;;;;;;37.17;15.47;;;;;;;5.83;100.00;100375.81;7397137;19;20965;-53
2022/02/03 13:48:57;;;;;;;26.83;10.60;;;;;;;5.84;100.00;100381.81;7397359;19;20383;-55
2022/02/03 13:51:28;;;;;;;43.40;16.17;;;;;;;5.85;100.00;100375.91;7391412;19;20419;-54
2022/02/03 13:54:10;;;;;;;36.03;16.57;;;;;;;5.89;100.00;100367.59;7399442;19;20391;-54
2022/02/03 14:19:17;;;;;;;43.37;16.23;;;;;;;5.83;100.00;100334.84;7398631;19;20416;-52
2022/02/03 14:21:48;;;;;;;39.70;14.53;;;;;;;5.80;100.00;100327.00;7393890;19;20403;-50
2022/02/03 14:27:19;;;;;;;27.97;11.43;;;;;;;5.78;100.00;100326.91;7395248;19;20396;-54
2022/02/03 14:29:52;;;;;;;45.23;17.50;;;;;;;5.84;100.00;100320.38;7400497;19;20394;-56
2022/02/03 14:32:29;;;;;;;33.53;14.57;;;;;;;5.80;100.00;100327.00;7395412;19;20407;-55
2022/02/03 14:35:01;;;;;;;35.73;15.87;;;;;;;5.81;100.00;100319.38;7398445;19;20720;-54
2022/02/03 14:37:42;;;;;;;34.57;14.10;;;;;;;5.88;100.00;100323.16;7391840;19;20429;-48
2022/02/03 14:40:30;;;;;;;25.23;12.30;;;;;;;5.81;100.00;100314.25;7397078;19;20383;-55
2022/02/03 14:43:02;;;;;;;37.60;15.20;;;;;;;5.90;100.00;100292.53;7394577;19;20421;-55
2022/02/03 14:45:32;;;;;;;36.37;16.77;;;;;;;6.10;100.00;100293.59;7398071;19;20387;-50
2022/02/03 14:48:02;;;;;;;33.17;14.23;;;;;;;5.87;100.00;100297.47;7393431;19;20431;-54
2022/02/03 14:50:34;;;;;;;38.47;15.00;;;;;;;5.85;100.00;100289.69;7396559;19;20416;-54
2022/02/03 14:53:14;;;;;;;32.10;12.20;;;;;;;5.81;100.00;100288.66;7393561;19;20751;-57
2022/02/03 14:58:27;;;;;;;28.70;12.00;;;;;;;5.80;100.00;100281.78;7396667;19;20425;-54
2022/02/03 15:00:57;;;;;;;28.67;11.57;;;;;;;5.79;100.00;100280.03;7392855;19;20763;-54
2022/02/03 15:03:29;;;;;;;30.90;13.73;;;;;;;5.91;100.00;100274.66;7396474;19;20921;-49
2022/02/03 15:06:07;;;;;;;19.97;10.13;;;;;;;5.75;100.00;100272.09;7391901;19;20393;-53
2022/02/03 15:08:47;;;;;;;31.10;13.10;;;;;;;6.15;100.00;100263.13;7397143;19;20391;-50
2022/02/03 15:11:26;;;;;;;34.03;16.43;;;;;;;5.99;100.00;100269.97;7392548;19;20430;-51
2022/02/03 15:13:55;;;;;;;30.70;15.57;;;;;;;5.91;100.00;100259.31;7396883;19;20736;-51
2022/02/03 15:16:27;;;;;;;30.13;13.50;;;;;;;5.85;100.00;100256.41;7393945;19;20419;-56
2022/02/03 15:19:16;;;;;;;26.97;12.40;;;;;;;5.89;100.00;100252.38;7396728;19;20375;-51
2022/02/03 15:21:48;;;;;;;32.20;12.10;;;;;;;5.78;100.00;100245.00;7391974;19;20399;-53
2022/02/03 15:24:17;;;;;;;29.00;12.40;;;;;;;5.83;100.00;100250.34;7396381;19;20459;-50
2022/02/03 15:26:47;;;;;;;29.27;12.83;;;;;;;5.87;100.00;100243.72;7393633;19;20415;-56
2022/02/03 15:29:16;;;;;;;22.20;8.60;;;;;;;5.78;100.00;100246.66;7394919;19;20396;-54
2022/02/03 15:31:46;;;;;;;22.97;12.30;;;;;;;5.83;100.00;100239.25;7391816;19;20964;-54
2022/02/03 15:34:35;;;;;;;22.80;11.73;;;;;;;5.82;100.00;100240.91;7396115;19;20400;-53
2022/02/03 15:37:13;;;;;;;25.40;11.77;;;;;;;5.82;100.00;100235.78;7392995;19;20419;-51
2022/02/03 15:39:47;;;;;;;29.97;15.20;;;;;;;5.79;100.00;100233.06;7396057;19;20383;-57
2022/02/03 15:42:19;;;;;;;28.50;12.83;;;;;;;5.70;100.00;100236.03;7391823;19;20744;-57
2022/02/03 15:44:51;;;;;;;22.37;10.37;;;;;;;5.68;100.00;100237.59;7396519;19;20812;-55
2022/02/03 15:47:28;;;;;;;30.20;14.23;;;;;;;5.78;100.00;100231.28;7392811;19;20410;-52
2022/02/03 16:01:29;;;;;;;26.20;12.33;;;;;;;5.72;100.00;100231.88;7394683;19;20407;-56
2022/02/03 16:04:24;;;;;;;27.00;11.83;;;;;;;5.69;100.00;100236.81;7399515;19;20402;-55
2022/02/03 16:17:55;;;;;;;33.97;15.17;;;;;;;5.77;100.00;100238.13;7391357;19;20414;-52
2022/02/03 16:20:30;;;;;;;24.40;10.97;;;;;;;5.54;100.00;100245.44;7393538;19;20415;-55
2022/02/03 16:23:08;;;;;;;30.43;12.17;;;;;;;5.73;100.00;100241.31;7388988;19;20402;-53
2022/02/03 16:26:28;;;;;;;29.67;13.77;;;;;;;5.88;100.00;100242.91;7394810;19;20388;-50
2022/02/03 16:50:53;;;;;;;32.80;16.67;;;;;;;5.66;100.00;100206.81;7392867;19;20752;-55
2022/02/03 16:53:23;;;;;;;24.40;12.47;;;;;;;5.52;100.00;100198.41;7392803;19;20824;-52
2022/02/03 16:55:52;;;;;;;15.23;6.77;;;;;;;5.43;100.00;100208.16;7389874;19;20388;-60
2022/02/03 16:58:26;;;;;;;21.23;9.70;;;;;;;5.37;100.00;100207.81;7391251;19;20407;-51
2022/02/03 17:00:59;;;;;;;28.27;13.37;;;;;;;5.44;100.00;100211.59;7392231;19;20769;-53
2022/02/03 17:03:29;;;;;;;26.47;12.83;;;;;;;5.37;100.00;100212.94;7391256;19;20399;-54
2022/02/03 17:05:58;;;;;;;23.60;10.20;;;;;;;5.35;100.00;100209.41;7390694;19;20738;-54
2022/02/03 17:08:28;;;;;;;30.63;13.33;;;;;;;5.39;100.00;100216.47;7392495;19;20467;-54
2022/02/03 17:10:57;;;;;;;25.53;11.57;;;;;;;5.37;100.00;100207.81;7391730;19;20426;-53
2022/02/03 17:13:29;;;;;;;30.40;15.60;;;;;;;5.37;100.00;100216.38;7392771;19;20387;-54
2022/02/03 17:16:00;;;;;;;32.17;14.17;;;;;;;5.36;100.00;100206.06;7393284;19;20399;-50
2022/02/03 17:18:29;;;;;;;32.13;15.57;;;;;;;5.38;100.00;100204.44;7400205;19;20374;-53
2022/02/03 17:20:59;;;;;;;26.10;11.70;;;;;;;5.35;100.00;100202.63;7395356;19;20422;-55
2022/02/03 17:23:28;;;;;;;26.57;12.93;;;;;;;5.36;100.00;100201.84;7400439;19;20399;-49
2022/02/03 17:26:07;;;;;;;23.03;11.87;;;;;;;5.37;100.00;100195.03;7397748;19;20380;-51
2022/02/03 17:28:48;;;;;;;25.03;12.50;;;;;;;5.38;100.00;100195.09;7400022;19;20380;-48
2022/02/03 17:31:25;;;;;;;31.17;12.80;;;;;;;5.31;100.00;100187.00;7395477;19;20439;-51
2022/02/03 18:09:37;;;;;;;31.80;15.10;;;;;;;5.46;100.00;100185.28;7398042;19;20395;-49
2022/02/03 18:18:15;;;;;;;14.37;5.97;;;;;;;5.28;100.00;100177.50;7396088;19;20946;-55
2022/02/03 18:35:09;;;;;;;30.73;14.90;;;;;;;5.26;100.00;100173.97;7397704;19;20400;-51
2022/02/03 18:45:48;;;;;;;34.33;14.30;;;;;;;5.24;100.00;100166.22;7395412;19;20414;-47
2022/02/03 18:51:35;;;;;;;39.40;17.93;;;;;;;5.22;100.00;100165.28;7392772;19;20447;-56
2022/02/03 18:54:15;;;;;;;30.63;14.40;;;;;;;5.22;100.00;100170.38;7397343;19;20383;-51
2022/02/03 18:56:52;;;;;;;32.60;15.10;;;;;;;5.23;100.00;100173.84;7394725;19;20411;-52
2022/02/03 18:59:42;;;;;;;32.70;15.63;;;;;;;5.24;100.00;100170.47;7396964;19;20384;-49
2022/02/03 20:03:06;;;;;;;35.10;18.00;;;;;;;5.16;100.00;100149.59;7393095;19;20411;-49
2022/02/03 20:05:38;;;;;;;35.73;18.23;;;;;;;5.14;100.00;100149.50;7397285;19;20419;-50
2022/02/03 20:08:13;;;;;;;27.47;12.60;;;;;;;5.13;100.00;100152.00;7394284;19;20438;-48
2022/02/03 20:10:46;;;;;;;37.47;17.60;;;;;;;5.13;100.00;100147.75;7393256;19;20411;-50
2022/02/03 20:13:19;;;;;;;25.10;10.30;;;;;;;5.09;100.00;100147.50;7392029;19;20414;-52
2022/02/03 20:15:49;;;;;;;23.13;9.67;;;;;;;5.10;100.00;100146.69;7394934;19;20380;-50
2022/02/03 20:18:19;;;;;;;41.10;20.40;;;;;;;5.15;100.00;100140.16;7393929;19;20418;-47
2022/02/03 20:20:49;;;;;;;35.13;16.60;;;;;;;5.14;100.00;100143.53;7393534;19;20926;-50
2022/02/03 20:23:21;;;;;;;36.67;18.23;;;;;;;5.12;100.00;100137.41;7393578;19;20411;-58
2022/02/03 20:25:56;;;;;;;37.60;17.70;;;;;;;5.13;100.00;100136.66;7397357;19;20402;-55
2022/02/03 20:28:30;;;;;;;106.47;49.40;;;;;;;5.34;100.00;100130.91;7393422;19;20406;-56